»·PEaware :: N228Q KBHK-KBIL

N228Q :: KBHK-KBIL

FLIGHT INFORMATION

Flight Status: Arrived
Operator: Privately registered:
United States
More flights under this callsign
Pilot: Chuck O. (4337)
Aircraft: BEECH AIRCRAFT BONANZA
(BE35)
More flights by this aircraft type
Origin: KBHK Baker Mun
United States
Destination: KBIL Billings Logan Intl
United States
More flights between these airports :: More routes between these airports
Route: +KIXCO V2 NIBBE
File this flight plan on PilotEdge
Remarks:
Altitude:
(Current/Filed)
7,000ft
Speed:
(Current/Filed)
160kts
Departed: 21-Sep-20 03:06 PM
Arrived: 21-Sep-20 04:22 PM
Distance/Time
Traveled:
182nm/1:15
Distance/Time
To Go:
Arrived

Flight Plot

Page will automatically refresh every two minutes.

Flight plan parsing failed; only flown route is shown


Map Options




Map Legend


Flown Route
Filed Route
Departure Airport
Arrival Airport
Navaid (VOR, NDB)
Fix

Horizontal Profiles

Position Reports

Time Latitude Longitude Heading Altitude Ground
Speed
21-Sep-20 14:54 46.353372 -104.269312 131 2984ft 0kts
21-Sep-20 14:55 46.353370 -104.269309 131 2984ft 0kts
21-Sep-20 14:56 46.353368 -104.269306 131 2984ft 0kts
21-Sep-20 14:57 46.353367 -104.269303 131 2984ft 0kts
21-Sep-20 14:58 46.353365 -104.269300 131 2984ft 0kts
21-Sep-20 14:59 46.353292 -104.269176 129 2984ft 8kts
21-Sep-20 15:00 46.349838 -104.263619 138 2984ft 27kts
21-Sep-20 15:01 46.343576 -104.255359 136 2984ft 26kts
21-Sep-20 15:02 46.340418 -104.250892 65 2984ft 0kts
21-Sep-20 15:03 46.340419 -104.250889 65 2984ft 0kts
21-Sep-20 15:04 46.341088 -104.250857 317 2984ft 17kts
21-Sep-20 15:05 46.358016 -104.272125 313 3547ft 94kts
21-Sep-20 15:06 46.380501 -104.300692 310 4451ft 111kts
21-Sep-20 15:07 46.402931 -104.331936 312 5486ft 111kts
21-Sep-20 15:08 46.425905 -104.362340 313 6448ft 112kts
21-Sep-20 15:09 46.449185 -104.393000 312 7299ft 114kts
21-Sep-20 15:10 46.472821 -104.424149 312 8076ft 114kts
21-Sep-20 15:11 46.500248 -104.462375 316 8016ft 160kts
21-Sep-20 15:12 46.530721 -104.509149 305 8045ft 160kts
21-Sep-20 15:13 46.564424 -104.552661 323 8021ft 165kts
21-Sep-20 15:14 46.595861 -104.597464 278 8021ft 157kts
21-Sep-20 15:15 46.588341 -104.659856 256 8019ft 157kts
21-Sep-20 15:16 46.578752 -104.721991 256 8011ft 158kts
21-Sep-20 15:17 46.569126 -104.784482 256 8010ft 158kts
21-Sep-20 15:18 46.559469 -104.846975 256 7986ft 158kts
21-Sep-20 15:19 46.549810 -104.909245 256 8000ft 158kts
21-Sep-20 15:20 46.540096 -104.971678 256 7985ft 158kts
21-Sep-20 15:21 46.530358 -105.033996 255 7999ft 157kts
21-Sep-20 15:22 46.520631 -105.095994 255 8007ft 158kts
21-Sep-20 15:23 46.510763 -105.158641 255 7997ft 158kts
21-Sep-20 15:24 46.500908 -105.220967 255 8004ft 158kts
21-Sep-20 15:25 46.490986 -105.283474 255 8007ft 158kts
21-Sep-20 15:26 46.481034 -105.345939 255 7995ft 159kts
21-Sep-20 15:27 46.471008 -105.408624 255 7991ft 159kts
21-Sep-20 15:28 46.461004 -105.470939 254 8015ft 158kts
21-Sep-20 15:29 46.450970 -105.533198 254 8023ft 159kts
21-Sep-20 15:30 46.440809 -105.596014 254 8011ft 160kts
21-Sep-20 15:31 46.430604 -105.658874 254 8007ft 160kts
21-Sep-20 15:32 46.420415 -105.721390 254 8007ft 160kts
21-Sep-20 15:33 46.410134 -105.784236 254 8008ft 160kts
21-Sep-20 15:34 46.399849 -105.846873 254 8008ft 160kts
21-Sep-20 15:35 46.389527 -105.909516 254 8011ft 160kts
21-Sep-20 15:36 46.378848 -105.972315 251 8010ft 160kts
21-Sep-20 15:37 46.366145 -106.033945 251 8011ft 160kts
21-Sep-20 15:38 46.353610 -106.095662 251 8014ft 160kts
21-Sep-20 15:39 46.341052 -106.157559 251 8020ft 160kts
21-Sep-20 15:40 46.328460 -106.219480 251 8021ft 160kts
21-Sep-20 15:41 46.315860 -106.281253 251 8022ft 160kts
21-Sep-20 15:42 46.303210 -106.343068 251 8021ft 160kts
21-Sep-20 15:43 46.290548 -106.404747 251 8017ft 160kts
21-Sep-20 15:44 46.277824 -106.466539 251 8018ft 160kts
21-Sep-20 15:45 46.265117 -106.528061 251 8020ft 160kts
21-Sep-20 15:46 46.252336 -106.589746 251 8020ft 160kts
21-Sep-20 15:47 46.239555 -106.651246 251 8023ft 159kts
21-Sep-20 15:48 46.226738 -106.712738 251 8026ft 159kts
21-Sep-20 15:50 46.213940 -106.773957 251 8029ft 159kts
21-Sep-20 15:51 46.201064 -106.835351 251 8024ft 159kts
21-Sep-20 15:52 46.188139 -106.896790 251 8023ft 160kts
21-Sep-20 15:53 46.175188 -106.958171 251 8016ft 159kts
21-Sep-20 15:54 46.162240 -107.019349 251 8014ft 159kts
21-Sep-20 15:55 46.149242 -107.080587 251 8011ft 159kts
21-Sep-20 15:56 46.136220 -107.141759 251 8022ft 159kts
21-Sep-20 15:57 46.123152 -107.202964 251 8020ft 160kts
21-Sep-20 15:58 46.109983 -107.264457 251 8028ft 160kts
21-Sep-20 15:59 46.097055 -107.324652 251 8033ft 160kts
21-Sep-20 16:00 46.083609 -107.387069 251 8030ft 160kts
21-Sep-20 16:01 46.070342 -107.448471 251 8019ft 160kts
21-Sep-20 16:02 46.057013 -107.509978 251 8012ft 160kts
21-Sep-20 16:03 46.043685 -107.571298 251 8021ft 160kts
21-Sep-20 16:04 46.030361 -107.632417 251 8028ft 160kts
21-Sep-20 16:05 46.016953 -107.693746 251 8016ft 161kts
21-Sep-20 16:06 46.003522 -107.755008 251 8015ft 160kts
21-Sep-20 16:07 45.990209 -107.815550 250 8017ft 160kts
21-Sep-20 16:07 45.978803 -107.867250 250 8020ft 160kts
21-Sep-20 16:09 45.963032 -107.938645 251 7684ft 159kts
21-Sep-20 16:09 45.951823 -107.989220 251 6976ft 159kts
21-Sep-20 16:10 45.938337 -108.049694 249 6139ft 158kts
21-Sep-20 16:11 45.916201 -108.098657 233 5947ft 134kts
21-Sep-20 16:12 45.894747 -108.141967 233 5942ft 132kts
21-Sep-20 16:13 45.872352 -108.187104 233 5945ft 145kts
21-Sep-20 16:14 45.848528 -108.235090 233 5952ft 148kts
21-Sep-20 16:15 45.826955 -108.285129 262 5937ft 151kts
21-Sep-20 16:16 45.823108 -108.346808 261 5834ft 156kts
21-Sep-20 16:17 45.818539 -108.409881 262 5340ft 164kts
21-Sep-20 16:18 45.814255 -108.468818 264 4496ft 113kts
21-Sep-20 16:19 45.811285 -108.509287 264 3942ft 102kts
21-Sep-20 16:20 45.808736 -108.544581 261 3583ft 59kts
21-Sep-20 16:21 45.807745 -108.557682 267 3583ft 19kts
21-Sep-20 16:22 45.807184 -108.558119 116 3583ft 11kts
21-Sep-20 16:23 45.805716 -108.552774 108 3583ft 13kts
21-Sep-20 16:24 45.804719 -108.551883 198 3583ft 0kts
21-Sep-20 16:25 45.804719 -108.551883 198 3583ft 0kts
21-Sep-20 16:26 45.804719 -108.551883 198 3583ft 0kts
21-Sep-20 16:27 45.804719 -108.551883 198 3583ft 0kts
21-Sep-20 16:28 45.804719 -108.551883 198 3583ft 0kts

Navigation Log

Ident Type
Flight plan parsing failed, navigation log unavailable